Time;durP1;ratioP1;P1;durP2;ratioP2;P2;SDS_P1;SDS_P2;PMS_P1;PMS_P2;Temp;Humidity;BMP_temperature;BMP_pressure;BME280_temperature;BME280_humidity;BME280_pressure;Samples;Min_cycle;Max_cycle;Signal;HPM_P1;HPM_P2
2022/06/10 00:01:19;;;;;;;7.37;4.67;;;21.50;91.40;;;;;;5056970;28;22303;-77
2022/06/10 00:03:48;;;;;;;8.40;5.32;;;21.50;91.50;;;;;;5060614;28;20261;-77
2022/06/10 00:06:16;;;;;;;9.60;5.32;;;21.50;91.40;;;;;;5057151;28;20718;-77
2022/06/10 00:08:47;;;;;;;7.47;5.30;;;21.50;91.40;;;;;;5060937;28;20205;-78
2022/06/10 00:11:16;;;;;;;7.63;5.38;;;21.50;91.40;;;;;;5058551;28;20195;-78
2022/06/10 00:13:47;;;;;;;8.53;5.77;;;21.50;91.40;;;;;;5058610;28;20218;-77
2022/06/10 00:16:19;;;;;;;10.38;5.60;;;21.50;91.40;;;;;;5055360;28;20195;-77
2022/06/10 00:18:48;;;;;;;9.43;5.90;;;21.50;91.50;;;;;;5055963;28;20198;-78
2022/06/10 00:21:18;;;;;;;9.33;5.60;;;21.50;91.40;;;;;;5057868;28;20195;-79
2022/06/10 00:23:47;;;;;;;10.73;5.63;;;21.50;91.40;;;;;;5059444;28;20206;-79
2022/06/10 00:26:16;;;;;;;10.30;6.35;;;21.50;91.40;;;;;;5059181;28;20194;-78
2022/06/10 00:28:47;;;;;;;8.23;6.10;;;21.50;91.40;;;;;;5060315;28;20209;-77
2022/06/10 00:31:17;;;;;;;8.07;6.20;;;21.50;91.30;;;;;;5056045;28;20222;-80
2022/06/10 00:33:52;;;;;;;11.13;6.00;;;21.50;91.30;;;;;;5054693;28;20224;-78
2022/06/10 00:36:21;;;;;;;9.63;6.28;;;21.60;91.40;;;;;;5059924;28;20193;-79
2022/06/10 00:38:50;;;;;;;8.15;5.43;;;21.60;91.40;;;;;;5049566;28;20635;-78
2022/06/10 00:41:18;;;;;;;9.60;5.88;;;21.50;91.40;;;;;;5061372;28;20201;-79
2022/06/10 00:43:48;;;;;;;13.05;6.05;;;21.50;91.40;;;;;;5061738;28;20222;-80
2022/06/10 00:46:31;;;;;;;8.88;5.90;;;21.50;91.50;;;;;;5062256;28;20774;-77
2022/06/10 00:49:13;;;;;;;8.52;5.63;;;21.50;91.70;;;;;;5060300;28;20217;-80
2022/06/10 00:51:45;;;;;;;11.15;6.70;;;21.50;91.60;;;;;;5061370;28;20198;-79
2022/06/10 00:54:19;;;;;;;9.77;5.78;;;21.40;91.80;;;;;;5062108;28;20205;-79
2022/06/10 00:56:51;;;;;;;8.30;5.90;;;21.40;91.60;;;;;;5055853;28;20192;-80
2022/06/10 00:59:24;;;;;;;10.43;6.43;;;21.40;91.70;;;;;;5055966;28;20202;-80
2022/06/10 01:01:56;;;;;;;12.00;7.15;;;21.40;91.70;;;;;;5060573;28;20188;-79
2022/06/10 01:04:26;;;;;;;14.73;6.13;;;21.30;91.80;;;;;;5058273;28;20800;-79
2022/06/10 01:06:54;;;;;;;11.30;6.63;;;21.30;91.80;;;;;;5055895;28;20200;-79
2022/06/10 01:09:24;;;;;;;10.90;6.47;;;21.20;91.80;;;;;;5058281;28;20213;-79
2022/06/10 01:12:18;;;;;;;13.77;6.73;;;21.20;91.90;;;;;;5059854;28;20190;-78
2022/06/10 01:15:12;;;;;;;9.98;6.40;;;21.20;91.90;;;;;;5052530;28;20238;-79
2022/06/10 01:17:52;;;;;;;10.93;6.73;;;21.10;91.90;;;;;;5058975;28;20201;-79
2022/06/10 01:20:32;;;;;;;16.03;6.63;;;21.20;92.00;;;;;;5056893;28;20183;-79
2022/06/10 01:23:49;;;;;;;10.57;6.90;;;21.10;92.00;;;;;;5053258;28;20217;-79
2022/06/10 01:30:14;;;;;;;12.25;6.72;;;21.10;92.10;;;;;;5062032;28;20216;-79
2022/06/10 01:32:55;;;;;;;13.57;7.27;;;21.10;92.00;;;;;;5054403;28;20190;-78
2022/06/10 01:35:30;;;;;;;12.67;6.97;;;21.10;92.10;;;;;;5054940;28;20191;-80
2022/06/10 01:38:05;;;;;;;10.60;6.80;;;21.10;92.30;;;;;;5056200;28;20190;-80
2022/06/10 01:40:40;;;;;;;9.03;6.53;;;21.10;92.20;;;;;;5059394;28;20182;-78
2022/06/10 01:43:16;;;;;;;11.90;6.85;;;21.10;92.20;;;;;;5061515;28;20251;-79
2022/06/10 01:45:53;;;;;;;11.20;7.37;;;21.00;92.20;;;;;;5062671;28;20773;-79
2022/06/10 01:48:31;;;;;;;13.87;6.80;;;21.00;92.20;;;;;;5062526;28;20750;-79
2022/06/10 01:51:08;;;;;;;12.57;7.80;;;21.00;92.40;;;;;;5055938;28;20194;-78
2022/06/10 01:53:40;;;;;;;12.40;7.33;;;21.00;92.30;;;;;;5057292;28;20193;-79
2022/06/10 01:56:14;;;;;;;15.77;7.63;;;21.10;92.20;;;;;;5061853;28;20198;-79
2022/06/10 01:58:48;;;;;;;10.93;6.50;;;21.10;92.20;;;;;;5065126;28;20198;-79
2022/06/10 02:01:20;;;;;;;11.70;7.30;;;21.10;92.20;;;;;;5058665;28;20589;-79
2022/06/10 02:03:55;;;;;;;13.07;6.80;;;21.10;92.40;;;;;;5058437;28;20230;-79
2022/06/10 02:06:31;;;;;;;12.47;7.57;;;21.10;92.50;;;;;;5063483;28;20185;-78
2022/06/10 02:09:02;;;;;;;10.57;6.90;;;21.10;92.80;;;;;;5053424;28;20190;-79
2022/06/10 02:11:34;;;;;;;10.90;7.17;;;21.10;92.70;;;;;;5059336;28;20199;-79
2022/06/10 02:14:12;;;;;;;13.97;7.57;;;21.10;92.80;;;;;;5058569;28;20225;-78
2022/06/10 02:16:44;;;;;;;12.98;7.00;;;21.10;92.80;;;;;;5057097;28;20198;-79
2022/06/10 02:19:19;;;;;;;11.73;7.07;;;21.10;92.80;;;;;;5053013;28;20671;-78
2022/06/10 02:21:53;;;;;;;13.40;7.90;;;21.10;93.00;;;;;;5058305;28;20186;-79
2022/06/10 02:24:26;;;;;;;12.68;8.07;;;21.10;92.80;;;;;;5053449;28;20727;-80
2022/06/10 02:26:59;;;;;;;11.67;7.73;;;21.10;92.80;;;;;;5060503;28;20194;-78
2022/06/10 02:29:33;;;;;;;12.00;7.67;;;21.10;92.90;;;;;;5051030;28;20679;-80
2022/06/10 02:32:02;;;;;;;25.43;8.27;;;21.10;92.80;;;;;;5058044;28;20182;-79
2022/06/10 02:34:32;;;;;;;14.83;7.43;;;21.10;93.00;;;;;;5063763;28;20199;-80
2022/06/10 02:37:07;;;;;;;13.07;7.95;;;21.10;92.90;;;;;;5054684;28;20281;-79
2022/06/10 02:39:41;;;;;;;13.38;6.80;;;21.20;92.90;;;;;;5055852;28;20187;-80
2022/06/10 02:42:15;;;;;;;11.27;6.80;;;21.20;92.90;;;;;;5058750;28;20285;-80
2022/06/10 02:44:55;;;;;;;15.52;7.60;;;21.20;93.00;;;;;;5060663;28;20229;-80
2022/06/10 02:47:30;;;;;;;12.18;7.53;;;21.20;93.20;;;;;;5063361;28;20186;-80
2022/06/10 02:50:00;;;;;;;15.80;7.68;;;21.20;93.20;;;;;;5059463;28;20190;-80
2022/06/10 02:52:34;;;;;;;10.50;7.22;;;21.20;93.20;;;;;;5062927;28;20198;-80
2022/06/10 02:55:03;;;;;;;14.85;8.13;;;21.20;93.20;;;;;;5066359;28;20201;-80
2022/06/10 03:03:15;;;;;;;19.60;8.68;;;21.10;93.40;;;;;;5030012;28;20261;-80
2022/06/10 03:05:54;;;;;;;15.43;9.20;;;21.10;93.40;;;;;;5063686;28;20186;-80
2022/06/10 03:08:30;;;;;;;13.10;8.70;;;21.10;93.50;;;;;;5061976;28;20205;-80
2022/06/10 03:11:11;;;;;;;15.07;8.77;;;21.10;93.50;;;;;;5059901;28;20201;-79
2022/06/10 03:13:50;;;;;;;15.00;8.27;;;21.00;93.50;;;;;;5060868;28;20726;-79
2022/06/10 03:16:34;;;;;;;16.10;8.95;;;21.00;93.60;;;;;;5064035;28;20182;-79
2022/06/10 03:19:13;;;;;;;16.13;10.00;;;21.00;93.60;;;;;;5063049;28;20190;-79
2022/06/10 03:21:54;;;;;;;19.15;9.23;;;21.00;93.60;;;;;;5062890;28;20606;-79
2022/06/10 03:24:30;;;;;;;15.97;8.63;;;21.00;93.60;;;;;;5065095;28;20202;-78
2022/06/10 03:27:03;;;;;;;14.30;9.85;;;21.10;93.70;;;;;;5065593;28;20189;-79
2022/06/10 03:29:40;;;;;;;16.20;9.07;;;21.10;93.70;;;;;;5059542;28;20198;-80
2022/06/10 03:32:15;;;;;;;14.43;9.33;;;21.10;93.80;;;;;;5060798;28;20714;-80
2022/06/10 03:34:47;;;;;;;13.82;9.27;;;21.10;93.80;;;;;;5064190;28;20190;-79
2022/06/10 03:37:19;;;;;;;15.17;8.40;;;21.00;94.10;;;;;;5058934;28;20201;-79
2022/06/10 03:39:52;;;;;;;18.90;9.80;;;21.00;94.10;;;;;;5062863;28;20268;-78
2022/06/10 03:42:23;;;;;;;15.52;8.90;;;21.00;94.00;;;;;;5060368;28;20183;-79
2022/06/10 03:44:54;;;;;;;17.65;8.80;;;21.10;94.10;;;;;;5064616;28;20233;-80
2022/06/10 03:47:29;;;;;;;15.15;9.30;;;21.10;94.00;;;;;;5063297;28;20206;-79
2022/06/10 03:50:04;;;;;;;15.70;9.20;;;21.10;93.90;;;;;;5063404;28;20855;-79
2022/06/10 03:52:36;;;;;;;15.23;8.93;;;21.10;94.00;;;;;;5061555;28;20186;-80
2022/06/10 03:55:06;;;;;;;15.07;8.77;;;21.10;93.90;;;;;;5065115;28;20282;-78
2022/06/10 03:57:35;;;;;;;15.60;8.63;;;21.10;94.10;;;;;;5062923;28;20194;-79
2022/06/10 04:00:06;;;;;;;14.73;9.25;;;21.20;93.90;;;;;;5063987;28;20197;-76
2022/06/10 04:02:34;;;;;;;18.10;7.85;;;21.20;94.00;;;;;;5064301;28;20194;-79
2022/06/10 04:05:03;;;;;;;17.25;8.35;;;21.20;93.90;;;;;;5059248;28;20223;-79
2022/06/10 04:07:32;;;;;;;15.48;7.95;;;21.20;93.90;;;;;;5063079;28;20198;-80
2022/06/10 04:10:01;;;;;;;13.30;7.72;;;21.30;94.00;;;;;;5062882;28;20710;-81
2022/06/10 04:12:29;;;;;;;14.45;8.48;;;21.30;93.90;;;;;;5055099;28;20190;-80
2022/06/10 04:14:58;;;;;;;17.52;9.65;;;21.30;94.10;;;;;;5059417;28;20249;-79
2022/06/10 04:17:26;;;;;;;16.17;8.70;;;21.30;94.10;;;;;;5057897;28;20286;-79
2022/06/10 04:19:56;;;;;;;16.42;9.23;;;21.30;94.00;;;;;;5062285;28;20194;-79
2022/06/10 04:22:25;;;;;;;15.35;9.60;;;21.30;94.10;;;;;;5060007;28;20269;-78
2022/06/10 04:24:55;;;;;;;14.75;8.55;;;21.30;94.10;;;;;;5057378;28;20226;-77
2022/06/10 04:27:23;;;;;;;13.38;9.00;;;21.40;94.10;;;;;;5063939;28;20206;-79
2022/06/10 04:29:52;;;;;;;14.82;8.45;;;21.40;94.10;;;;;;5065662;28;20194;-79
2022/06/10 04:32:20;;;;;;;15.05;8.57;;;21.40;94.20;;;;;;5055619;28;20202;-79
2022/06/10 04:34:48;;;;;;;18.30;8.52;;;21.40;94.20;;;;;;5058053;28;20209;-77
2022/06/10 04:37:17;;;;;;;12.85;8.27;;;21.40;94.20;;;;;;5063242;28;20191;-79
2022/06/10 04:39:45;;;;;;;15.02;9.05;;;21.50;94.20;;;;;;5063068;28;20186;-78
2022/06/10 04:42:15;;;;;;;13.75;8.07;;;21.50;94.20;;;;;;5060116;28;20205;-79
2022/06/10 04:44:43;;;;;;;15.23;8.13;;;21.60;94.20;;;;;;5056233;28;20215;-78
2022/06/10 04:47:12;;;;;;;10.73;7.35;;;21.60;94.10;;;;;;5060170;28;20670;-78
2022/06/10 04:49:40;;;;;;;15.48;7.78;;;21.60;94.00;;;;;;5063725;28;20890;-77
2022/06/10 04:52:09;;;;;;;14.45;8.60;;;21.70;93.90;;;;;;5059067;28;20191;-78
2022/06/10 04:54:37;;;;;;;13.85;7.20;;;21.70;94.00;;;;;;5063042;28;20201;-79
2022/06/10 04:57:06;;;;;;;15.45;8.27;;;21.70;94.00;;;;;;5060352;28;20194;-77
2022/06/10 04:59:36;;;;;;;14.80;7.50;;;21.80;93.90;;;;;;5059688;28;20199;-78
2022/06/10 05:02:05;;;;;;;14.43;7.70;;;21.80;94.00;;;;;;5059021;28;20190;-77
2022/06/10 05:04:33;;;;;;;13.00;7.03;;;21.80;94.00;;;;;;5063053;28;20309;-78
2022/06/10 05:07:02;;;;;;;11.48;7.57;;;21.90;93.90;;;;;;5062282;28;20209;-77
2022/06/10 05:09:30;;;;;;;9.45;6.47;;;21.90;93.80;;;;;;5061136;28;20195;-79
2022/06/10 05:11:58;;;;;;;11.57;6.78;;;21.90;93.80;;;;;;5063669;28;20191;-78
2022/06/10 05:14:27;;;;;;;13.45;6.80;;;22.00;93.70;;;;;;5061775;28;20214;-79
2022/06/10 05:16:57;;;;;;;12.05;7.05;;;21.90;93.60;;;;;;5062261;28;20187;-81
2022/06/10 05:19:26;;;;;;;12.38;7.00;;;22.00;93.60;;;;;;5062778;28;20277;-79
2022/06/10 05:21:54;;;;;;;10.20;6.43;;;22.00;93.60;;;;;;5057465;28;20878;-79
2022/06/10 05:24:23;;;;;;;11.48;6.28;;;22.00;93.50;;;;;;5061731;28;20222;-79
2022/06/10 05:26:51;;;;;;;12.07;6.55;;;22.00;93.50;;;;;;5058513;28;20201;-80
2022/06/10 05:29:20;;;;;;;7.90;5.93;;;22.10;93.50;;;;;;5056038;28;20194;-77
2022/06/10 05:31:48;;;;;;;10.15;6.53;;;22.10;93.40;;;;;;5058324;28;20194;-79
2022/06/10 05:37:04;;;;;;;11.73;6.15;;;22.20;93.10;;;;;;5064893;28;20208;-78
2022/06/10 05:39:33;;;;;;;10.40;6.00;;;22.20;93.00;;;;;;5062167;28;20336;-78
2022/06/10 05:42:08;;;;;;;9.43;5.60;;;22.30;93.00;;;;;;5057118;28;20195;-79
2022/06/10 05:44:39;;;;;;;10.02;5.43;;;22.30;93.10;;;;;;5056152;28;20210;-80
2022/06/10 05:47:08;;;;;;;7.50;4.65;;;22.40;93.00;;;;;;5063163;28;20282;-79
2022/06/10 05:49:41;;;;;;;8.32;5.68;;;22.40;92.80;;;;;;5060429;28;20195;-79
2022/06/10 05:52:11;;;;;;;12.02;5.75;;;22.40;92.50;;;;;;5059184;28;20206;-79
2022/06/10 05:54:46;;;;;;;9.45;5.68;;;22.40;92.60;;;;;;5060731;28;20687;-79
2022/06/10 05:57:14;;;;;;;8.75;5.40;;;22.50;92.60;;;;;;5066671;28;20193;-79
2022/06/10 05:59:47;;;;;;;9.20;4.93;;;22.50;92.70;;;;;;5061904;28;20183;-79
2022/06/10 06:02:16;;;;;;;9.77;6.13;;;22.60;92.70;;;;;;5061944;28;20199;-78
2022/06/10 06:04:47;;;;;;;8.63;5.57;;;22.60;92.50;;;;;;5059201;28;20284;-77
2022/06/10 06:07:18;;;;;;;11.25;5.38;;;22.70;92.50;;;;;;5060356;28;20190;-79
2022/06/10 06:09:47;;;;;;;10.25;5.47;;;22.60;92.40;;;;;;5063091;28;20201;-77
2022/06/10 06:12:16;;;;;;;8.38;5.60;;;22.70;92.40;;;;;;5058735;28;20186;-77
2022/06/10 06:14:44;;;;;;;9.00;5.75;;;22.70;92.10;;;;;;5055523;28;20809;-80
2022/06/10 06:17:14;;;;;;;8.90;6.00;;;22.70;92.10;;;;;;5063244;28;20190;-78
2022/06/10 06:19:43;;;;;;;8.90;5.70;;;22.70;92.10;;;;;;5063700;28;21750;-79
2022/06/10 06:22:13;;;;;;;9.68;5.13;;;22.70;92.00;;;;;;5068371;28;20815;-78
2022/06/10 06:24:42;;;;;;;8.60;4.32;;;22.80;91.80;;;;;;5069229;28;20198;-79
2022/06/10 06:27:16;;;;;;;6.72;4.45;;;22.80;91.50;;;;;;5065716;28;20201;-78
2022/06/10 06:29:45;;;;;;;6.90;4.45;;;22.80;91.30;;;;;;5062970;28;20205;-78
2022/06/10 06:32:14;;;;;;;8.82;4.63;;;23.00;91.30;;;;;;5068882;28;20206;-78
2022/06/10 06:34:42;;;;;;;9.27;3.83;;;23.00;91.50;;;;;;5067767;28;20208;-76
2022/06/10 06:37:14;;;;;;;6.22;3.60;;;23.10;91.20;;;;;;5064174;28;20194;-76
2022/06/10 06:39:42;;;;;;;5.88;3.40;;;23.20;91.20;;;;;;5066751;28;20186;-78
2022/06/10 06:42:12;;;;;;;8.98;3.42;;;23.20;91.00;;;;;;5067610;28;20469;-77
2022/06/10 06:44:41;;;;;;;6.88;2.92;;;23.40;90.80;;;;;;5061026;28;20209;-78
2022/06/10 06:47:29;;;;;;;5.45;2.80;;;23.40;90.50;;;;;;5066379;28;20710;-77
2022/06/10 06:49:58;;;;;;;6.25;3.05;;;23.60;90.30;;;;;;5067637;28;20202;-76
2022/06/10 06:52:28;;;;;;;7.35;3.35;;;23.60;90.20;;;;;;5065874;28;20197;-75
2022/06/10 06:54:56;;;;;;;5.40;3.38;;;23.70;90.00;;;;;;5055987;28;20194;-75
2022/06/10 06:57:26;;;;;;;6.07;3.47;;;23.70;90.00;;;;;;5065740;28;20547;-75
2022/06/10 07:00:04;;;;;;;5.75;3.42;;;23.80;90.00;;;;;;5065151;28;20190;-75
2022/06/10 07:02:32;;;;;;;8.90;4.50;;;23.80;89.60;;;;;;5065184;28;20190;-74
2022/06/10 07:05:01;;;;;;;10.48;4.10;;;23.80;89.60;;;;;;5064269;28;20745;-76
2022/06/10 07:07:32;;;;;;;4.30;3.15;;;23.80;89.10;;;;;;5062498;28;20722;-75
2022/06/10 07:10:00;;;;;;;7.20;3.30;;;23.80;88.50;;;;;;5063639;28;20201;-75
2022/06/10 07:12:28;;;;;;;5.85;3.30;;;23.90;88.60;;;;;;5065833;28;20198;-76
2022/06/10 07:14:57;;;;;;;6.55;3.58;;;23.90;89.50;;;;;;5060148;28;20221;-75
2022/06/10 07:17:26;;;;;;;8.75;3.65;;;24.00;88.70;;;;;;5066219;28;20198;-75
2022/06/10 07:19:58;;;;;;;5.65;3.40;;;23.90;88.10;;;;;;5061544;28;20759;-75
2022/06/10 07:22:27;;;;;;;5.10;2.83;;;24.00;88.50;;;;;;5063970;28;20186;-74
2022/06/10 07:24:57;;;;;;;6.78;2.90;;;24.10;88.70;;;;;;5061070;28;21384;-74
2022/06/10 07:27:25;;;;;;;4.63;2.83;;;24.10;88.20;;;;;;5057721;28;20252;-76
2022/06/10 07:30:04;;;;;;;5.00;3.33;;;24.20;88.00;;;;;;5064351;28;20240;-75
2022/06/10 07:32:33;;;;;;;5.63;3.17;;;24.30;87.90;;;;;;5066117;28;20213;-76
2022/06/10 07:35:02;;;;;;;5.65;2.63;;;24.30;86.70;;;;;;5063228;28;20201;-77
2022/06/10 07:37:35;;;;;;;5.30;2.55;;;24.40;86.90;;;;;;5063447;28;20217;-76
2022/06/10 07:40:06;;;;;;;5.35;2.97;;;24.50;87.00;;;;;;5036578;28;20205;-76
2022/06/10 07:42:34;;;;;;;4.90;2.78;;;24.50;87.00;;;;;;5065795;28;20194;-75
2022/06/10 07:45:03;;;;;;;3.88;2.58;;;24.60;86.60;;;;;;5063184;28;20204;-76
2022/06/10 07:47:32;;;;;;;5.38;3.30;;;24.60;85.80;;;;;;5063089;28;20222;-77
2022/06/10 07:50:00;;;;;;;7.28;3.55;;;24.60;85.70;;;;;;5064334;28;20190;-79
2022/06/10 07:52:28;;;;;;;6.15;3.30;;;24.70;85.70;;;;;;5066211;28;20209;-75
2022/06/10 07:54:57;;;;;;;5.80;3.83;;;24.80;85.10;;;;;;5060290;28;20211;-76
2022/06/10 07:57:27;;;;;;;9.70;3.28;;;24.70;83.70;;;;;;5054359;28;20191;-75
2022/06/10 07:59:55;;;;;;;6.25;3.35;;;24.70;83.70;;;;;;5058238;28;20194;-75
2022/06/10 08:02:26;;;;;;;9.07;3.58;;;24.70;84.30;;;;;;5062695;28;20203;-76
2022/06/10 08:04:54;;;;;;;6.35;3.20;;;24.80;84.60;;;;;;5064264;28;20205;-75
2022/06/10 08:07:23;;;;;;;7.28;3.28;;;24.80;84.50;;;;;;5056300;28;20214;-74
2022/06/10 08:09:51;;;;;;;4.32;2.63;;;24.80;84.00;;;;;;5058489;28;20198;-76
2022/06/10 08:12:20;;;;;;;3.95;2.50;;;24.90;83.80;;;;;;5062945;28;20868;-75
2022/06/10 08:14:49;;;;;;;5.40;3.25;;;25.00;83.80;;;;;;5063082;28;20766;-75
2022/06/10 08:17:18;;;;;;;6.32;3.13;;;25.00;83.60;;;;;;5060388;28;20195;-75
2022/06/10 08:19:46;;;;;;;4.70;2.95;;;25.00;83.80;;;;;;5060158;28;20675;-77
2022/06/10 08:25:00;;;;;;;4.97;2.53;;;25.10;83.50;;;;;;5057536;28;20194;-76
2022/06/10 08:27:29;;;;;;;5.13;3.10;;;25.20;82.90;;;;;;5059157;28;20218;-78
2022/06/10 08:29:59;;;;;;;5.55;2.63;;;25.20;83.10;;;;;;5060823;28;20199;-76
2022/06/10 08:32:28;;;;;;;8.90;3.45;;;25.30;82.80;;;;;;5058066;28;20702;-75
2022/06/10 08:34:56;;;;;;;6.93;2.70;;;25.40;82.30;;;;;;5059530;28;20188;-75
2022/06/10 08:37:25;;;;;;;7.75;2.90;;;25.50;82.50;;;;;;5063268;28;20717;-74
2022/06/10 08:39:53;;;;;;;7.35;3.55;;;25.60;82.60;;;;;;5061845;28;20198;-74
2022/06/10 08:42:36;;;;;;;10.07;2.85;;;25.60;81.40;;;;;;5061846;28;20739;-74
2022/06/10 08:45:17;;;;;;;10.43;3.30;;;25.70;81.60;;;;;;5057901;28;20651;-74
2022/06/10 08:47:59;;;;;;;10.05;3.22;;;25.60;78.90;;;;;;5060753;28;20213;-74
2022/06/10 08:50:45;;;;;;;5.80;3.03;;;25.60;79.10;;;;;;5058425;28;20191;-74
2022/06/10 08:53:27;;;;;;;3.78;2.63;;;25.60;79.40;;;;;;5059848;28;20190;-75
2022/06/10 08:56:03;;;;;;;6.15;3.10;;;25.70;79.70;;;;;;5063485;28;20198;-75
2022/06/10 08:58:38;;;;;;;5.50;2.55;;;25.60;79.50;;;;;;5054478;28;20197;-78
2022/06/10 09:01:16;;;;;;;4.97;2.83;;;25.60;78.30;;;;;;5059739;28;20200;-74
2022/06/10 09:03:50;;;;;;;5.47;2.70;;;25.70;78.30;;;;;;5063783;28;20205;-75
2022/06/10 09:06:24;;;;;;;3.90;2.30;;;25.70;79.00;;;;;;5054650;28;20206;-74
2022/06/10 09:08:56;;;;;;;6.47;2.35;;;25.70;78.30;;;;;;5057765;28;20190;-74
2022/06/10 09:11:30;;;;;;;5.25;2.00;;;25.80;78.40;;;;;;5059308;28;20194;-75
2022/06/10 09:14:05;;;;;;;5.60;1.85;;;25.80;77.70;;;;;;5060590;28;20225;-78
2022/06/10 09:16:41;;;;;;;4.50;2.80;;;25.80;78.10;;;;;;5060329;28;20194;-75
2022/06/10 09:19:16;;;;;;;5.55;2.92;;;25.90;77.70;;;;;;5058510;28;20243;-76
2022/06/10 09:21:51;;;;;;;6.40;2.85;;;26.00;78.30;;;;;;5061613;28;20197;-76
2022/06/10 09:24:27;;;;;;;4.68;2.90;;;26.00;78.80;;;;;;5058844;28;20231;-77
2022/06/10 09:27:04;;;;;;;3.10;2.05;;;26.10;79.10;;;;;;5057147;28;20209;-76
2022/06/10 09:29:37;;;;;;;3.80;2.05;;;26.10;79.30;;;;;;5059126;28;20191;-78
2022/06/10 09:32:11;;;;;;;5.53;2.50;;;26.00;76.40;;;;;;5057253;28;20189;-74
2022/06/10 09:34:51;;;;;;;3.22;2.35;;;25.90;76.90;;;;;;5061405;28;20193;-78
2022/06/10 09:37:32;;;;;;;6.18;2.40;;;25.90;77.10;;;;;;5052803;28;20194;-75
2022/06/10 09:43:09;;;;;;;6.13;2.22;;;25.80;77.90;;;;;;5061264;28;20651;-76
2022/06/10 09:45:46;;;;;;;4.97;2.47;;;25.80;78.00;;;;;;5057820;28;20222;-78
2022/06/10 09:48:31;;;;;;;5.13;2.50;;;25.80;78.30;;;;;;5056653;28;20209;-77
2022/06/10 09:51:06;;;;;;;3.00;2.03;;;25.80;78.40;;;;;;5050559;28;20555;-79
2022/06/10 09:53:56;;;;;;;4.88;1.67;;;25.80;77.70;;;;;;5050776;28;20198;-75
2022/06/10 09:56:40;;;;;;;4.20;1.92;;;25.90;77.90;;;;;;5059712;28;20198;-76
2022/06/10 09:59:18;;;;;;;3.13;1.90;;;26.00;78.00;;;;;;5059673;28;20186;-76
2022/06/10 10:02:04;;;;;;;3.58;1.90;;;26.10;78.20;;;;;;5054802;28;20815;-78
2022/06/10 10:04:54;;;;;;;4.95;2.17;;;26.20;78.10;;;;;;5058283;28;20656;-78
2022/06/10 10:07:32;;;;;;;5.50;2.10;;;26.20;78.20;;;;;;5059608;28;20222;-76
2022/06/10 10:10:13;;;;;;;6.03;2.00;;;26.30;77.50;;;;;;5060292;28;20198;-80
2022/06/10 10:12:49;;;;;;;3.60;2.10;;;26.30;76.30;;;;;;5054440;28;20186;-80
2022/06/10 10:15:29;;;;;;;5.93;2.15;;;26.40;76.10;;;;;;5056825;28;20213;-76
2022/06/10 10:18:37;;;;;;;4.45;2.00;;;26.40;76.10;;;;;;5060917;28;20182;-79
2022/06/10 10:21:13;;;;;;;4.97;1.55;;;26.40;75.40;;;;;;5057956;28;20191;-78
2022/06/10 10:23:44;;;;;;;3.42;2.05;;;26.40;75.00;;;;;;5058268;28;20193;-80
2022/06/10 10:26:21;;;;;;;3.75;1.80;;;26.40;74.80;;;;;;5059373;28;20273;-77
2022/06/10 10:28:53;;;;;;;4.32;1.83;;;26.50;74.50;;;;;;5061976;28;20210;-77
2022/06/10 10:31:24;;;;;;;3.90;1.85;;;26.50;75.90;;;;;;5062048;28;20182;-76
2022/06/10 10:33:58;;;;;;;3.72;2.03;;;26.60;75.40;;;;;;5061400;28;20194;-78
2022/06/10 10:36:47;;;;;;;7.03;2.10;;;26.50;74.40;;;;;;5057533;28;20835;-75
2022/06/10 10:39:24;;;;;;;3.20;1.75;;;26.50;74.40;;;;;;5059541;28;20458;-75
2022/06/10 10:41:55;;;;;;;5.75;2.17;;;26.50;74.70;;;;;;5056271;28;20194;-77
2022/06/10 10:44:35;;;;;;;3.67;1.67;;;26.70;75.20;;;;;;5059393;28;20189;-76
2022/06/10 10:47:17;;;;;;;2.60;1.55;;;26.70;75.10;;;;;;5051034;28;20201;-78
2022/06/10 10:49:50;;;;;;;3.13;1.90;;;26.80;74.50;;;;;;5051722;28;20284;-79
2022/06/10 10:52:28;;;;;;;4.55;2.30;;;27.00;74.50;;;;;;5054808;28;20191;-79
2022/06/10 10:55:01;;;;;;;5.35;1.90;;;27.10;74.30;;;;;;5056210;28;20645;-78
2022/06/10 10:57:36;;;;;;;4.20;2.05;;;27.20;73.20;;;;;;5060225;28;20183;-82
2022/06/10 11:00:25;;;;;;;3.40;1.98;;;27.30;73.30;;;;;;5061140;28;20194;-79
2022/06/10 11:02:55;;;;;;;2.17;1.70;;;27.30;72.80;;;;;;5056584;28;20628;-79
2022/06/10 11:05:31;;;;;;;4.20;1.92;;;27.40;71.30;;;;;;5058308;28;20178;-80
2022/06/10 11:08:16;;;;;;;5.28;1.60;;;27.40;70.50;;;;;;5060302;28;20202;-79
2022/06/10 11:11:00;;;;;;;5.75;1.77;;;27.40;71.20;;;;;;5060337;28;20662;-79
2022/06/10 11:13:42;;;;;;;6.13;2.05;;;27.40;70.00;;;;;;5060811;28;20186;-78
2022/06/10 11:16:40;;;;;;;2.38;1.70;;;27.40;70.20;;;;;;5061106;28;20197;-80
2022/06/10 11:19:40;;;;;;;4.63;2.08;;;27.30;70.50;;;;;;5061219;28;20277;-81
2022/06/10 11:22:12;;;;;;;2.53;1.75;;;27.50;71.10;;;;;;5062496;28;20194;-79
2022/06/10 11:24:44;;;;;;;6.00;1.90;;;27.50;71.80;;;;;;5063764;28;20190;-80
2022/06/10 11:27:28;;;;;;;3.35;1.95;;;27.60;71.80;;;;;;5060879;28;20190;-78
2022/06/10 11:30:07;;;;;;;4.18;1.77;;;27.60;71.80;;;;;;5055538;28;20193;-80
2022/06/10 11:32:40;;;;;;;4.28;1.90;;;27.60;71.00;;;;;;5058255;28;20412;-79
2022/06/10 11:35:25;;;;;;;4.00;1.92;;;27.60;71.10;;;;;;5061340;28;20186;-79
2022/06/10 11:37:56;;;;;;;5.03;2.15;;;27.60;71.50;;;;;;5058957;28;20190;-79
2022/06/10 11:40:29;;;;;;;3.72;1.58;;;27.60;71.60;;;;;;5064201;28;20193;-80
2022/06/10 11:43:04;;;;;;;3.80;2.08;;;27.60;71.50;;;;;;5061050;28;20825;-81
2022/06/10 11:45:40;;;;;;;5.65;2.00;;;27.50;71.40;;;;;;5059856;28;20259;-79
2022/06/10 11:48:16;;;;;;;2.78;1.70;;;27.50;71.00;;;;;;5061264;28;20590;-79
2022/06/10 11:50:54;;;;;;;7.10;1.75;;;27.50;71.10;;;;;;5053047;28;20190;-80
2022/06/10 11:53:33;;;;;;;4.20;1.88;;;27.60;71.30;;;;;;5044190;28;20283;-77
2022/06/10 12:01:47;;;;;;;4.40;1.60;;;27.50;70.70;;;;;;5055679;28;20320;-80
2022/06/10 12:04:19;;;;;;;2.88;1.85;;;27.60;70.00;;;;;;5063773;28;20195;-79
2022/06/10 12:06:54;;;;;;;6.13;2.10;;;27.50;70.30;;;;;;5062027;28;20277;-81
2022/06/10 12:09:28;;;;;;;5.78;1.70;;;27.50;70.10;;;;;;5057563;28;20236;-81
2022/06/10 12:12:05;;;;;;;3.83;1.90;;;27.50;70.40;;;;;;5061327;28;20206;-78
2022/06/10 12:14:38;;;;;;;3.65;1.90;;;27.40;71.10;;;;;;5058426;28;20420;-81
2022/06/10 12:17:14;;;;;;;2.22;1.50;;;27.40;70.30;;;;;;5064222;28;20194;-82
2022/06/10 12:19:46;;;;;;;6.03;1.98;;;27.40;70.30;;;;;;5061189;28;20190;-80
2022/06/10 12:22:16;;;;;;;2.13;1.50;;;27.30;70.40;;;;;;5062201;28;20182;-79
2022/06/10 12:24:48;;;;;;;2.97;1.77;;;27.30;70.40;;;;;;5060981;28;20664;-83
2022/06/10 12:27:26;;;;;;;3.88;1.77;;;27.30;70.60;;;;;;5059818;28;20669;-79
2022/06/10 12:30:02;;;;;;;4.43;1.80;;;27.30;70.70;;;;;;5063072;28;20771;-78
2022/06/10 12:32:37;;;;;;;4.63;1.70;;;27.20;70.80;;;;;;5066135;28;20184;-77
2022/06/10 12:35:12;;;;;;;3.83;2.20;;;27.20;70.50;;;;;;5058395;28;20784;-80
2022/06/10 12:37:45;;;;;;;2.05;1.48;;;27.30;70.50;;;;;;5062156;28;20194;-82
2022/06/10 12:40:21;;;;;;;5.28;1.73;;;27.30;70.50;;;;;;5050298;28;20203;-78
2022/06/10 12:42:55;;;;;;;3.78;1.90;;;27.30;70.20;;;;;;5065917;28;20654;-79
2022/06/10 12:45:28;;;;;;;2.55;1.73;;;27.30;70.30;;;;;;5054564;28;20195;-81
2022/06/10 12:48:00;;;;;;;3.70;1.63;;;27.40;70.70;;;;;;5057886;28;20197;-80
2022/06/10 12:50:32;;;;;;;3.63;1.80;;;27.40;70.40;;;;;;5060414;28;20198;-78
2022/06/10 12:53:22;;;;;;;3.38;1.50;;;27.50;69.80;;;;;;5067879;28;20204;-79
2022/06/10 12:55:52;;;;;;;4.95;1.50;;;27.60;68.60;;;;;;5062136;28;20186;-78
2022/06/10 12:58:49;;;;;;;2.70;1.52;;;27.70;69.00;;;;;;5064618;28;20187;-78
2022/06/10 13:01:43;;;;;;;3.35;1.58;;;27.90;69.40;;;;;;5063904;28;20183;-78
2022/06/10 13:04:15;;;;;;;3.00;1.98;;;28.10;69.40;;;;;;5058216;28;20277;-78
2022/06/10 13:06:56;;;;;;;9.65;1.63;;;28.30;69.60;;;;;;5060117;28;20186;-77
2022/06/10 13:09:32;;;;;;;2.70;1.58;;;28.60;69.20;;;;;;5064263;28;20617;-81
2022/06/10 13:12:33;;;;;;;1.75;1.30;;;28.70;67.60;;;;;;5065737;28;20205;-81
2022/06/10 13:15:26;;;;;;;2.88;1.33;;;28.90;65.40;;;;;;5061527;28;20224;-78
2022/06/10 13:18:17;;;;;;;4.38;1.52;;;29.10;65.10;;;;;;5056872;28;20194;-78
2022/06/10 13:20:47;;;;;;;3.45;1.40;;;29.50;66.40;;;;;;5064537;28;20206;-77
2022/06/10 13:23:21;;;;;;;3.97;1.50;;;30.00;66.60;;;;;;5062794;28;20566;-77
2022/06/10 13:26:12;;;;;;;4.97;1.60;;;30.30;65.40;;;;;;5048469;28;20197;-78
2022/06/10 13:28:46;;;;;;;2.67;1.30;;;30.70;65.30;;;;;;5063944;28;20211;-78
2022/06/10 13:31:24;;;;;;;1.45;1.10;;;30.80;63.70;;;;;;5055917;28;20195;-78
2022/06/10 13:33:58;;;;;;;3.22;1.60;;;30.80;62.70;;;;;;5056932;28;20194;-77
2022/06/10 13:36:29;;;;;;;4.45;1.77;;;30.70;61.90;;;;;;5062921;28;20309;-78
2022/06/10 13:38:58;;;;;;;5.85;1.55;;;30.70;61.80;;;;;;5061346;28;20815;-78
2022/06/10 13:41:52;;;;;;;4.43;1.55;;;30.70;61.30;;;;;;5062285;28;20198;-79